Map

Track Data

SID SEASON NUMBER BASIN SUBBASIN NAME ISO_TIME NATURE LAT LON WMO_WIND WMO_PRES WMO_AGENCY TRACK_TYPE DIST2LAND LANDFALL IFLAG USA_AGENCY USA_ATCF_ID USA_LAT USA_LON USA_RECORD USA_STATUS USA_WIND USA_PRES USA_SSHS USA_R34_NE USA_R34_SE USA_R34_SW USA_R34_NW USA_R50_NE USA_R50_SE USA_R50_SW USA_R50_NW USA_R64_NE USA_R64_SE USA_R64_SW USA_R64_NW USA_POCI USA_ROCI USA_RMW USA_EYE TOKYO_LAT TOKYO_LON TOKYO_GRADE TOKYO_WIND TOKYO_PRES TOKYO_R50_DIR TOKYO_R50_LONG TOKYO_R50_SHORT TOKYO_R30_DIR TOKYO_R30_LONG TOKYO_R30_SHORT TOKYO_LAND CMA_LAT CMA_LON CMA_CAT CMA_WIND CMA_PRES HKO_LAT HKO_LON HKO_CAT HKO_WIND HKO_PRES NEWDELHI_LAT NEWDELHI_LON NEWDELHI_GRADE NEWDELHI_WIND NEWDELHI_PRES NEWDELHI_CI NEWDELHI_DP NEWDELHI_POCI REUNION_LAT REUNION_LON REUNION_TYPE REUNION_WIND REUNION_PRES REUNION_TNUM REUNION_CI REUNION_RMW REUNION_R34_NE REUNION_R34_SE REUNION_R34_SW REUNION_R34_NW REUNION_R50_NE REUNION_R50_SE REUNION_R50_SW REUNION_R50_NW REUNION_R64_NE REUNION_R64_SE REUNION_R64_SW REUNION_R64_NW BOM_LAT BOM_LON BOM_TYPE BOM_WIND BOM_PRES BOM_TNUM BOM_CI BOM_RMW BOM_R34_NE BOM_R34_SE BOM_R34_SW BOM_R34_NW BOM_R50_NE BOM_R50_SE BOM_R50_SW BOM_R50_NW BOM_R64_NE BOM_R64_SE BOM_R64_SW BOM_R64_NW BOM_ROCI BOM_POCI BOM_EYE BOM_POS_METHOD BOM_PRES_METHOD NADI_LAT NADI_LON NADI_CAT NADI_WIND NADI_PRES WELLINGTON_LAT WELLINGTON_LON WELLINGTON_WIND WELLINGTON_PRES DS824_LAT DS824_LON DS824_STAGE DS824_WIND DS824_PRES TD9636_LAT TD9636_LON TD9636_STAGE TD9636_WIND TD9636_PRES TD9635_LAT TD9635_LON TD9635_WIND TD9635_PRES TD9635_ROCI NEUMANN_LAT NEUMANN_LON NEUMANN_CLASS NEUMANN_WIND NEUMANN_PRES MLC_LAT MLC_LON MLC_CLASS MLC_WIND MLC_PRES USA_GUST BOM_GUST BOM_GUST_PER REUNION_GUST REUNION_GUST_PER USA_SEAHGT USA_SEARAD_NE USA_SEARAD_SE USA_SEARAD_SW USA_SEARAD_NW STORM_SPEED STORM_DIR
2005288N11259 2005 96 EP MM NOT_NAMED 2005-10-15 00:00:00 TS 11.0000 -101.200 30 1008 hurdat_epa main 656 656 O_____________ hurdat_epa EP162005 11.0000 -101.200 TD 30 1008 -1 1011 150 25 40 2 270
2005288N11259 2005 96 EP MM NOT_NAMED 2005-10-15 03:00:00 TS 11.0000 -101.300 main 661 661 P_____________ EP162005 11.0000 -101.300 TD 30 1008 -1 1011 150 25 2 270
2005288N11259 2005 96 EP MM NOT_NAMED 2005-10-15 06:00:00 TS 11.0000 -101.400 30 1008 hurdat_epa main 664 664 O_____________ hurdat_epa EP162005 11.0000 -101.400 TD 30 1008 -1 1011 150 25 40 2 270
2005288N11259 2005 96 EP MM NOT_NAMED 2005-10-15 09:00:00 TS 11.0000 -101.500 main 667 667 P_____________ EP162005 11.0000 -101.500 TD 30 1007 -1 1011 150 25 2 270
2005288N11259 2005 96 EP MM NOT_NAMED 2005-10-15 12:00:00 TS 11.0000 -101.600 30 1007 hurdat_epa main 670 670 O_____________ hurdat_epa EP162005 11.0000 -101.600 TD 30 1007 -1 1011 150 25 35 2 270
2005288N11259 2005 96 EP MM NOT_NAMED 2005-10-15 15:00:00 TS 11.0000 -101.693 main 673 673 P_____________ EP162005 11.0000 -101.693 TD 30 1007 -1 1011 150 25 2 270
2005288N11259 2005 96 EP MM NOT_NAMED 2005-10-15 18:00:00 TS 11.0000 -101.800 30 1007 hurdat_epa main 677 677 O_____________ hurdat_epa EP162005 11.0000 -101.800 TD 30 1007 -1 1011 150 25 35 2 268
2005288N11259 2005 96 EP MM NOT_NAMED 2005-10-15 21:00:00 TS 10.9925 -101.935 main 680 680 P_____________ EP162005 10.9925 -101.935 TD 30 1006 -1 1010 150 25 3 270
2005288N11259 2005 96 EP MM NOT_NAMED 2005-10-16 00:00:00 TS 11.0000 -102.100 30 1006 hurdat_epa main 688 688 O_____________ hurdat_epa EP162005 11.0000 -102.100 TD 30 1006 -1 1010 150 25 35 3 276
2005288N11259 2005 96 EP MM NOT_NAMED 2005-10-16 03:00:00 TS 11.0274 -102.270 main 697 691 P_____________ EP162005 11.0274 -102.270 TD 30 1005 -1 1010 150 22 4 284
2005288N11259 2005 96 EP MM NOT_NAMED 2005-10-16 06:00:00 TS 11.1000 -102.500 30 1005 hurdat_epa main 696 690 O_____________ hurdat_epa EP162005 11.1000 -102.500 TD 30 1005 -1 1010 150 20 40 6 291
2005288N11259 2005 96 EP MM NOT_NAMED 2005-10-16 09:00:00 TS 11.2351 -102.835 main 700 694 P_____________ EP162005 11.2351 -102.835 TD 30 1005 -1 1010 165 20 8 294
2005288N11259 2005 96 EP MM NOT_NAMED 2005-10-16 12:00:00 TS 11.4000 -103.200 30 1006 hurdat_epa main 698 691 O_____________ hurdat_epa EP162005 11.4000 -103.200 TD 30 1006 -1 1010 180 20 40 7 296
2005288N11259 2005 96 EP MM NOT_NAMED 2005-10-16 15:00:00 TS 11.5499 -103.508 main 698 686 P_____________ EP162005 11.5499 -103.508 TD 30 1006 -1 1010 180 20 7 297
2005288N11259 2005 96 EP MM NOT_NAMED 2005-10-16 18:00:00 TS 11.7000 -103.800 30 1006 hurdat_epa main 691 685 O_____________ hurdat_epa EP162005 11.7000 -103.800 TD 30 1006 -1 1010 180 20 40 7 299
2005288N11259 2005 96 EP MM NOT_NAMED 2005-10-16 21:00:00 TS 11.8649 -104.092 main 685 685 P_____________ EP162005 11.8649 -104.092 TD 30 1006 -1 1010 180 20 7 297
2005288N11259 2005 96 EP MM NOT_NAMED 2005-10-17 00:00:00 TS 12.0000 -104.400 30 1006 hurdat_epa main 691 691 O_____________ hurdat_epa EP162005 12.0000 -104.400 TD 30 1006 -1 1010 180 20 40 7 287
2005288N11259 2005 96 EP MM NOT_NAMED 2005-10-17 03:00:00 TS 12.0650 -104.743 main 697 697 P_____________ EP162005 12.0650 -104.743 TD 30 1006 -1 1010 165 20 7 278
2005288N11259 2005 96 EP MM NOT_NAMED 2005-10-17 06:00:00 TS 12.1000 -105.100 30 1007 hurdat_epa main 711 711 O_____________ hurdat_epa EP162005 12.1000 -105.100 TD 30 1007 -1 1010 150 20 40 7 278
2005288N11259 2005 96 EP MM NOT_NAMED 2005-10-17 09:00:00 TS 12.1574 -105.442 main 711 711 P_____________ EP162005 12.1574 -105.442 TD 30 1007 -1 1010 150 20 7 278
2005288N11259 2005 96 EP MM NOT_NAMED 2005-10-17 12:00:00 TS 12.2000 -105.800 30 1007 hurdat_epa main 726 726 O_____________ hurdat_epa EP162005 12.2000 -105.800 TD 30 1007 -1 1010 150 20 35 7 275
2005288N11259 2005 96 EP MM NOT_NAMED 2005-10-17 15:00:00 TS 12.2149 -106.185 main 741 741 P_____________ EP162005 12.2149 -106.185 TD 30 1007 -1 1010 150 20 8 270
2005288N11259 2005 96 EP MM NOT_NAMED 2005-10-17 18:00:00 TS 12.2000 -106.600 30 1007 hurdat_epa main 759 759 O_____________ hurdat_epa EP162005 12.2000 -106.600 TD 30 1007 -1 1010 150 20 35 8 266
2005288N11259 2005 96 EP MM NOT_NAMED 2005-10-17 21:00:00 TS 12.1575 -107.043 main 779 779 P_____________ EP162005 12.1575 -107.043 TD 27 1007 -1 1010 150 20 9 264
2005288N11259 2005 96 EP MM NOT_NAMED 2005-10-18 00:00:00 DS 12.1000 -107.500 25 1008 hurdat_epa main 815 815 O_____________ hurdat_epa EP162005 12.1000 -107.500 LO 25 1008 -3 1010 150 20 35 9 263
2005288N11259 2005 96 EP MM NOT_NAMED 2005-10-18 03:00:00 DS 12.0424 -107.950 main 854 854 P_____________ EP162005 12.0424 -107.950 LO 25 1008 -3 9 264
2005288N11259 2005 96 EP MM NOT_NAMED 2005-10-18 06:00:00 DS 12.0000 -108.400 25 1008 hurdat_epa main 879 879 O_____________ hurdat_epa EP162005 12.0000 -108.400 LO 25 1008 -3 9 267
2005288N11259 2005 96 EP MM NOT_NAMED 2005-10-18 09:00:00 DS 11.9999 -108.842 main 905 905 P_____________ EP162005 11.9999 -108.842 LO 25 1008 -3 9 270
2005288N11259 2005 96 EP MM NOT_NAMED 2005-10-18 12:00:00 DS 12.0000 -109.300 25 1008 hurdat_epa main 938 938 O_____________ hurdat_epa EP162005 12.0000 -109.300 LO 25 1008 -3 1011 150 20 9 267
2005288N11259 2005 96 EP MM NOT_NAMED 2005-10-18 15:00:00 DS 11.9574 -109.793 main 967 967 P_____________ EP162005 11.9574 -109.793 LO 25 1008 -3 1011 150 20 10 264
2005288N11259 2005 96 EP MM NOT_NAMED 2005-10-18 18:00:00 DS 11.9000 -110.300 25 1008 hurdat_epa main 1007 1007 O_____________ hurdat_epa EP162005 11.9000 -110.300 LO 25 1008 -3 1011 150 20 10 261
2005288N11259 2005 96 EP MM NOT_NAMED 2005-10-18 21:00:00 DS 11.8049 -110.800 main 1048 1048 P_____________ EP162005 11.8049 -110.800 LO 25 1008 -3 1011 150 20 10 264
2005288N11259 2005 96 EP MM NOT_NAMED 2005-10-19 00:00:00 DS 11.8000 -111.300 25 1008 hurdat_epa main 1081 1080 O_____________ hurdat_epa EP162005 11.8000 -111.300 LO 25 1008 -3 1011 150 20 10 285
2005288N11259 2005 96 EP MM NOT_NAMED 2005-10-19 03:00:00 DS 12.0573 -111.785 main 1092 1092 P_____________ EP162005 12.0573 -111.785 LO 25 1008 -3 1011 150 20 11 297
2005288N11259 2005 96 EP MM NOT_NAMED 2005-10-19 06:00:00 DS 12.3000 -112.300 25 1008 hurdat_epa main 1113 1113 O_____________ hurdat_epa EP162005 12.3000 -112.300 LO 25 1008 -3 1011 150 20 11 279
2005288N11259 2005 96 EP MM NOT_NAMED 2005-10-19 09:00:00 DS 12.2225 -112.885 main 1167 1167 P_____________ EP162005 12.2225 -112.885 LO 27 1007 -3 1011 150 20 12 260
2005288N11259 2005 96 EP MM NOT_NAMED 2005-10-19 12:00:00 TS 12.1000 -113.500 30 1007 hurdat_epa main 1221 1221 O_____________ hurdat_epa EP162005 12.1000 -113.500 TD 30 1007 -1 1011 150 20 35 12 268
2005288N11259 2005 96 EP MM NOT_NAMED 2005-10-19 15:00:00 TS 12.1775 -114.122 main 1260 1260 P_____________ EP162005 12.1775 -114.122 TD 30 1007 -1 1011 150 20 12 280
2005288N11259 2005 96 EP MM NOT_NAMED 2005-10-19 18:00:00 TS 12.3000 -114.700 30 1007 hurdat_epa main 1286 1286 O_____________ hurdat_epa EP162005 12.3000 -114.700 TD 30 1007 -1 1011 150 20 40 10 280
2005288N11259 2005 96 EP MM NOT_NAMED 2005-10-19 21:00:00 TS 12.3647 -115.158 main 1297 1297 P_____________ EP162005 12.3647 -115.158 TD 30 1007 -1 1011 150 20 9 276
2005288N11259 2005 96 EP MM NOT_NAMED 2005-10-20 00:00:00 TS 12.4000 -115.600 30 1007 hurdat_epa main 1315 1315 O_____________ hurdat_epa EP162005 12.4000 -115.600 TD 30 1007 -1 1011 150 20 35 10 272
2005288N11259 2005 96 EP MM NOT_NAMED 2005-10-20 03:00:00 TS 12.4000 -116.135 main 1340 1340 P_____________ EP162005 12.4000 -116.135 TD 30 1007 -1 1011 150 20 11 270
2005288N11259 2005 96 EP MM NOT_NAMED 2005-10-20 06:00:00 TS 12.4000 -116.700 30 1007 hurdat_epa main 1372 1372 O_____________ hurdat_epa EP162005 12.4000 -116.700 TD 30 1007 -1 1011 150 20 11 272
2005288N11259 2005 96 EP MM NOT_NAMED 2005-10-20 09:00:00 TS 12.4349 -117.250 main 1405 1402 P_____________ EP162005 12.4349 -117.250 TD 30 1007 -1 1011 150 20 11 275
2005288N11259 2005 96 EP MM NOT_NAMED 2005-10-20 12:00:00 TS 12.5000 -117.800 30 1007 hurdat_epa main 1426 1426 O_____________ hurdat_epa EP162005 12.5000 -117.800 TD 30 1007 -1 1011 150 20 35 11 279
2005288N11259 2005 96 EP MM NOT_NAMED 2005-10-20 15:00:00 TS 12.6075 -118.380 main 1454 1454 P_____________ EP162005 12.6075 -118.380 TD 27 1007 -1 1011 150 20 11 281
2005288N11259 2005 96 EP MM NOT_NAMED 2005-10-20 18:00:00 TS 12.7000 -118.900 25 1008 hurdat_epa main 1478 1478 O_____________ hurdat_epa EP162005 12.7000 -118.900 TD 25 1008 -1 1011 150 20 35 9 277
2005288N11259 2005 96 EP MM NOT_NAMED 2005-10-20 21:00:00 TS 12.7223 -119.288 main 1506 1506 P_____________ EP162005 12.7223 -119.288 TD 25 1008 -1 7 270
2005288N11259 2005 96 EP MM NOT_NAMED 2005-10-21 00:00:00 DS 12.7000 -119.600 25 1009 hurdat_epa main 1527 1527 O_____________ hurdat_epa EP162005 12.7000 -119.600 LO 25 1009 -3 6 264
2005288N11259 2005 96 EP MM NOT_NAMED 2005-10-21 03:00:00 DS 12.6551 -119.900 main 1548 1548 P_____________ EP162005 12.6551 -119.900 LO 22 1009 -3 6 260
2005288N11259 2005 96 EP MM NOT_NAMED 2005-10-21 06:00:00 DS 12.6000 -120.200 20 1010 hurdat_epa main 1578 O_____________ hurdat_epa EP162005 12.6000 -120.200 LO 20 1010 -3 6 259

About IBTrACS Database

This database is a web-friendly format of International Best Track Archive for Climate Stewardship (IBTrACS), a global best track data archive curated by NOAA dating back to 1842.

Updated: 2021-12-06